Time;durP1;ratioP1;P1;durP2;ratioP2;P2;SDS_P1;SDS_P2;PMS_P1;PMS_P2;Temp;Humidity;BMP_temperature;BMP_pressure;BME280_temperature;BME280_humidity;BME280_pressure;Samples;Min_cycle;Max_cycle;Signal;HPM_P1;HPM_P2
2022/07/15 00:04:01;;;;;;;6.13;2.83;;;;;;;;;;10398831;28;20541;-66
2022/07/15 00:09:02;;;;;;;11.10;2.88;;;;;;;;;;10402415;28;20041;-65
2022/07/15 00:14:03;;;;;;;8.30;3.00;;;;;;;;;;10400535;28;20064;-65
2022/07/15 00:19:03;;;;;;;11.40;3.60;;;;;;;;;;10399205;28;20063;-66
2022/07/15 00:24:04;;;;;;;8.73;3.03;;;;;;;;;;10395418;28;20029;-62
2022/07/15 00:29:04;;;;;;;9.07;3.13;;;;;;;;;;10397152;28;20604;-66
2022/07/15 00:34:05;;;;;;;12.83;3.40;;;;;;;;;;10405922;28;20033;-66
2022/07/15 00:39:06;;;;;;;11.20;3.93;;;;;;;;;;10404858;28;20814;-66
2022/07/15 00:44:06;;;;;;;10.52;3.33;;;;;;;;;;10403277;28;20865;-66
2022/07/15 00:49:08;;;;;;;7.70;3.33;;;;;;;;;;10406945;28;20019;-66
2022/07/15 00:54:10;;;;;;;9.57;3.78;;;;;;;;;;10399779;28;20021;-66
2022/07/15 00:59:12;;;;;;;10.00;3.45;;;;;;;;;;10398052;28;20045;-64
2022/07/15 01:04:12;;;;;;;9.45;3.58;;;;;;;;;;10391837;28;20033;-66
2022/07/15 01:09:14;;;;;;;6.20;3.33;;;;;;;;;;10399894;28;20033;-63
2022/07/15 01:14:14;;;;;;;6.80;3.97;;;;;;;;;;10385515;28;20120;-66
2022/07/15 01:19:15;;;;;;;8.13;3.78;;;;;;;;;;10396488;28;20638;-64
2022/07/15 01:24:15;;;;;;;7.13;3.13;;;;;;;;;;10383147;28;20022;-65
2022/07/15 01:29:16;;;;;;;6.47;3.40;;;;;;;;;;10395367;28;20989;-66
2022/07/15 01:34:16;;;;;;;7.82;3.28;;;;;;;;;;10394772;28;20491;-66
2022/07/15 01:39:16;;;;;;;10.18;4.25;;;;;;;;;;10404877;28;20041;-63
2022/07/15 01:44:17;;;;;;;10.17;4.60;;;;;;;;;;10402627;28;20031;-62
2022/07/15 01:49:26;;;;;;;7.27;4.40;;;;;;;;;;10413540;28;20543;-66
2022/07/15 01:54:28;;;;;;;10.55;4.45;;;;;;;;;;10411444;28;20478;-60
2022/07/15 01:59:29;;;;;;;6.80;4.07;;;;;;;;;;10403835;28;20021;-62
2022/07/15 02:04:29;;;;;;;8.37;4.70;;;;;;;;;;10411466;28;20428;-65
2022/07/15 02:09:30;;;;;;;9.07;4.90;;;;;;;;;;10401794;28;20454;-61
2022/07/15 02:14:30;;;;;;;8.18;4.70;;;;;;;;;;10403869;28;20040;-64
2022/07/15 02:19:30;;;;;;;6.53;4.47;;;;;;;;;;10399744;28;20032;-64
2022/07/15 02:24:31;;;;;;;11.67;4.63;;;;;;;;;;10402305;28;20920;-64
2022/07/15 02:29:31;;;;;;;12.20;4.50;;;;;;;;;;10403267;28;20546;-66
2022/07/15 02:34:32;;;;;;;6.93;3.97;;;;;;;;;;10406702;28;20485;-65
2022/07/15 02:39:32;;;;;;;6.38;3.75;;;;;;;;;;10398091;28;21157;-66
2022/07/15 02:44:33;;;;;;;8.80;4.20;;;;;;;;;;10402667;28;20037;-67
2022/07/15 02:49:33;;;;;;;11.95;4.15;;;;;;;;;;10400936;28;20566;-60
2022/07/15 02:54:33;;;;;;;11.17;3.87;;;;;;;;;;10406236;28;20374;-65
2022/07/15 02:59:34;;;;;;;12.27;4.07;;;;;;;;;;10410432;28;20447;-65
2022/07/15 03:04:34;;;;;;;7.00;3.60;;;;;;;;;;10406265;28;20029;-65
2022/07/15 03:09:35;;;;;;;8.18;3.30;;;;;;;;;;10408824;28;20021;-66
2022/07/15 03:14:35;;;;;;;8.40;3.47;;;;;;;;;;10407036;28;20040;-63
2022/07/15 03:19:36;;;;;;;7.38;3.33;;;;;;;;;;10407856;28;20031;-46
2022/07/15 03:24:36;;;;;;;5.88;2.85;;;;;;;;;;10403785;28;20037;-46
2022/07/15 03:29:37;;;;;;;5.18;3.15;;;;;;;;;;10406813;28;20390;-55
2022/07/15 03:34:38;;;;;;;7.13;3.35;;;;;;;;;;10395337;28;20025;-62
2022/07/15 03:39:38;;;;;;;11.00;3.25;;;;;;;;;;10400051;28;20496;-48
2022/07/15 03:44:39;;;;;;;10.13;3.70;;;;;;;;;;10403114;28;20040;-46
2022/07/15 03:49:39;;;;;;;6.15;3.40;;;;;;;;;;10388969;28;20462;-52
2022/07/15 03:54:40;;;;;;;8.23;4.10;;;;;;;;;;10404148;28;20061;-46
2022/07/15 03:59:40;;;;;;;10.50;3.47;;;;;;;;;;10408231;28;20083;-48
2022/07/15 04:04:40;;;;;;;8.07;3.23;;;;;;;;;;10397309;28;20596;-52
2022/07/15 04:09:41;;;;;;;6.40;3.73;;;;;;;;;;10400786;28;20515;-56
2022/07/15 04:14:41;;;;;;;6.73;4.20;;;;;;;;;;10402920;28;20483;-49
2022/07/15 04:19:42;;;;;;;8.13;4.20;;;;;;;;;;10400461;28;20454;-50
2022/07/15 04:24:42;;;;;;;13.53;4.03;;;;;;;;;;10405662;28;20467;-52
2022/07/15 04:29:43;;;;;;;7.72;3.83;;;;;;;;;;10399578;28;20466;-53
2022/07/15 04:34:43;;;;;;;10.77;3.60;;;;;;;;;;10388673;28;20037;-59
2022/07/15 04:39:43;;;;;;;8.37;3.17;;;;;;;;;;10397475;28;20961;-58
2022/07/15 04:44:44;;;;;;;16.80;3.15;;;;;;;;;;10387422;28;20037;-57
2022/07/15 04:55:03;;;;;;;7.35;2.55;;;;;;;;;;10395400;28;20041;-53
2022/07/15 05:00:05;;;;;;;18.33;2.22;;;;;;;;;;10396755;28;20025;-46
2022/07/15 05:05:07;;;;;;;8.65;2.30;;;;;;;;;;10398734;28;20025;-51
2022/07/15 05:10:08;;;;;;;13.55;2.60;;;;;;;;;;10399645;28;20228;-59
2022/07/15 05:15:09;;;;;;;6.25;2.35;;;;;;;;;;10405409;28;20599;-46
2022/07/15 05:20:10;;;;;;;11.00;2.60;;;;;;;;;;10404312;28;20113;-59
2022/07/15 05:25:12;;;;;;;7.50;2.28;;;;;;;;;;10424054;23;20531;-55
2022/07/15 05:30:12;;;;;;;10.55;2.35;;;;;;;;;;10432619;28;20599;-56
2022/07/15 05:35:14;;;;;;;6.07;2.10;;;;;;;;;;10411445;28;20040;-55
2022/07/15 05:40:15;;;;;;;8.25;2.58;;;;;;;;;;10412593;28;20507;-53
2022/07/15 05:45:16;;;;;;;12.35;2.97;;;;;;;;;;10406104;28;20030;-56
2022/07/15 05:50:17;;;;;;;9.95;2.67;;;;;;;;;;10405015;28;20021;-52
2022/07/15 05:55:18;;;;;;;18.98;3.20;;;;;;;;;;10403389;28;20056;-54
2022/07/15 06:00:18;;;;;;;17.20;2.88;;;;;;;;;;10408384;28;20025;-53
2022/07/15 06:05:19;;;;;;;13.90;3.53;;;;;;;;;;10412387;28;20072;-58
2022/07/15 06:10:19;;;;;;;20.45;3.28;;;;;;;;;;10407934;28;20026;-59
2022/07/15 06:15:20;;;;;;;22.50;3.10;;;;;;;;;;10412340;28;20370;-50
2022/07/15 06:20:21;;;;;;;16.38;2.75;;;;;;;;;;10401632;28;20022;-55
2022/07/15 06:25:21;;;;;;;14.90;3.13;;;;;;;;;;10420079;28;20128;-51
2022/07/15 06:30:22;;;;;;;21.30;2.75;;;;;;;;;;10404863;28;20041;-49
2022/07/15 06:35:22;;;;;;;8.68;2.20;;;;;;;;;;10411599;28;20374;-55
2022/07/15 06:40:23;;;;;;;23.05;2.83;;;;;;;;;;10411148;28;20385;-52
2022/07/15 06:45:23;;;;;;;10.33;2.80;;;;;;;;;;10411290;28;20095;-53
2022/07/15 06:50:24;;;;;;;8.90;2.50;;;;;;;;;;10410482;28;20447;-51
2022/07/15 06:55:25;;;;;;;5.45;2.25;;;;;;;;;;10410634;28;20029;-52
2022/07/15 07:00:26;;;;;;;9.27;2.00;;;;;;;;;;10409247;28;20026;-52
2022/07/15 07:05:27;;;;;;;6.85;2.20;;;;;;;;;;10408574;28;20518;-50
2022/07/15 07:10:28;;;;;;;5.40;2.20;;;;;;;;;;10409859;28;20067;-52
2022/07/15 07:15:28;;;;;;;4.63;2.20;;;;;;;;;;10407265;28;20437;-53
2022/07/15 07:20:29;;;;;;;5.18;1.95;;;;;;;;;;10405672;28;20537;-51
2022/07/15 07:25:29;;;;;;;3.43;2.07;;;;;;;;;;10406651;28;20512;-55
2022/07/15 07:30:30;;;;;;;4.43;2.13;;;;;;;;;;10402182;28;20453;-57
2022/07/15 07:35:31;;;;;;;7.22;1.77;;;;;;;;;;10401745;28;20487;-51
2022/07/15 07:40:31;;;;;;;3.13;1.90;;;;;;;;;;10404987;28;20344;-52
2022/07/15 07:45:32;;;;;;;4.77;1.90;;;;;;;;;;10408356;28;20570;-51
2022/07/15 07:50:32;;;;;;;5.43;2.10;;;;;;;;;;10405216;28;20469;-51
2022/07/15 07:55:33;;;;;;;8.48;2.08;;;;;;;;;;10407786;28;20533;-53
2022/07/15 08:00:34;;;;;;;4.83;1.87;;;;;;;;;;10408207;28;20037;-53
2022/07/15 08:05:34;;;;;;;6.78;1.90;;;;;;;;;;10405981;28;20465;-50
2022/07/15 08:10:35;;;;;;;4.97;2.00;;;;;;;;;;10403298;28;20376;-53
2022/07/15 08:15:35;;;;;;;2.47;1.90;;;;;;;;;;10406147;28;20032;-51
2022/07/15 08:20:36;;;;;;;6.45;2.13;;;;;;;;;;10401772;28;20420;-52
2022/07/15 08:25:37;;;;;;;3.95;2.03;;;;;;;;;;10402948;28;20406;-54
2022/07/15 08:30:38;;;;;;;4.75;1.95;;;;;;;;;;10401347;28;20018;-51
2022/07/15 08:35:40;;;;;;;5.82;1.95;;;;;;;;;;10406827;28;20029;-52
2022/07/15 08:40:43;;;;;;;7.57;2.00;;;;;;;;;;10407061;28;20014;-52
2022/07/15 08:45:43;;;;;;;8.93;2.20;;;;;;;;;;10404267;28;20037;-51
2022/07/15 08:50:44;;;;;;;7.10;2.20;;;;;;;;;;10401443;28;20464;-47
2022/07/15 08:55:46;;;;;;;16.65;2.30;;;;;;;;;;10400729;28;20470;-52
2022/07/15 09:00:46;;;;;;;12.93;2.42;;;;;;;;;;10406540;28;20013;-57
2022/07/15 09:05:47;;;;;;;11.33;2.70;;;;;;;;;;10401114;28;20033;-52
2022/07/15 09:10:54;;;;;;;10.55;2.38;;;;;;;;;;10406605;28;20443;-53
2022/07/15 09:15:56;;;;;;;15.05;3.17;;;;;;;;;;10385293;28;20408;-47
2022/07/15 09:20:57;;;;;;;10.88;2.90;;;;;;;;;;10402352;28;20033;-47
2022/07/15 09:26:22;;;;;;;9.43;2.85;;;;;;;;;;10405976;28;20053;-49
2022/07/15 09:36:54;;;;;;;11.93;2.53;;;;;;;;;;10405804;28;20030;-47
2022/07/15 09:41:54;;;;;;;6.22;2.50;;;;;;;;;;10399715;28;20026;-46
2022/07/15 09:46:58;;;;;;;6.03;2.33;;;;;;;;;;10392473;28;20025;-46
2022/07/15 09:52:09;;;;;;;6.78;1.80;;;;;;;;;;10403885;28;21163;-46
2022/07/15 09:57:15;;;;;;;7.55;2.03;;;;;;;;;;10406907;28;20030;-48
2022/07/15 10:02:16;;;;;;;10.38;2.20;;;;;;;;;;10412779;28;20406;-49
2022/07/15 10:07:17;;;;;;;8.68;2.03;;;;;;;;;;10410390;28;20108;-50
2022/07/15 10:12:21;;;;;;;4.47;1.80;;;;;;;;;;10409710;28;20034;-52
2022/07/15 10:17:38;;;;;;;4.38;1.88;;;;;;;;;;10407639;28;20378;-50
2022/07/15 10:22:57;;;;;;;4.53;2.20;;;;;;;;;;10408028;28;20037;-49
2022/07/15 10:28:14;;;;;;;4.45;2.13;;;;;;;;;;10407944;28;20112;-51
2022/07/15 10:33:16;;;;;;;4.10;1.60;;;;;;;;;;10410320;28;20083;-50
2022/07/15 10:38:33;;;;;;;8.50;2.38;;;;;;;;;;10411786;28;20052;-50
2022/07/15 10:43:49;;;;;;;3.83;1.87;;;;;;;;;;10408156;28;20025;-50
2022/07/15 10:48:58;;;;;;;2.88;1.73;;;;;;;;;;10397210;28;20049;-50
2022/07/15 10:53:59;;;;;;;3.75;1.98;;;;;;;;;;10407294;28;20029;-50
2022/07/15 10:59:09;;;;;;;3.47;1.92;;;;;;;;;;10405319;28;20029;-48
2022/07/15 11:04:17;;;;;;;9.55;1.77;;;;;;;;;;10410592;28;20037;-50
2022/07/15 11:09:43;;;;;;;4.55;1.90;;;;;;;;;;10408637;28;20037;-47
2022/07/15 11:14:50;;;;;;;3.70;1.77;;;;;;;;;;10410524;28;20378;-49
2022/07/15 11:19:53;;;;;;;8.85;2.05;;;;;;;;;;10408654;28;20116;-49
2022/07/15 11:24:55;;;;;;;3.85;1.63;;;;;;;;;;10409525;28;20048;-55
2022/07/15 11:30:02;;;;;;;10.55;1.85;;;;;;;;;;10404253;28;20017;-49
2022/07/15 11:35:03;;;;;;;12.55;2.08;;;;;;;;;;10409093;28;20026;-50
2022/07/15 11:40:11;;;;;;;9.52;2.65;;;;;;;;;;10407902;28;20042;-57
2022/07/15 11:45:11;;;;;;;8.27;2.15;;;;;;;;;;10405491;28;20084;-53
2022/07/15 11:50:12;;;;;;;21.30;2.37;;;;;;;;;;10398203;28;20107;-50
2022/07/15 11:55:12;;;;;;;12.90;3.23;;;;;;;;;;10390213;28;20547;-47
2022/07/15 12:00:13;;;;;;;9.55;2.55;;;;;;;;;;10401589;28;20415;-49
2022/07/15 12:05:14;;;;;;;8.50;2.50;;;;;;;;;;10403021;28;20026;-51
2022/07/15 12:10:15;;;;;;;10.20;2.55;;;;;;;;;;10408012;28;20412;-52
2022/07/15 12:15:15;;;;;;;4.90;2.28;;;;;;;;;;10401079;28;20106;-49
2022/07/15 12:20:16;;;;;;;4.47;2.23;;;;;;;;;;10383630;28;20029;-53
2022/07/15 12:25:20;;;;;;;7.82;2.67;;;;;;;;;;10374652;28;20513;-52
2022/07/15 12:30:31;;;;;;;4.65;2.20;;;;;;;;;;10381809;28;20063;-52
2022/07/15 12:35:31;;;;;;;4.07;2.17;;;;;;;;;;10394919;28;20037;-50
2022/07/15 12:40:32;;;;;;;5.77;2.07;;;;;;;;;;10392518;28;20045;-47
2022/07/15 12:45:36;;;;;;;11.57;3.47;;;;;;;;;;10380195;28;20462;-53
2022/07/15 12:50:49;;;;;;;5.22;2.63;;;;;;;;;;10379714;28;20451;-53
2022/07/15 12:55:51;;;;;;;7.30;2.70;;;;;;;;;;10374983;28;20485;-53
2022/07/15 13:00:51;;;;;;;7.43;2.72;;;;;;;;;;10383717;28;20104;-48
2022/07/15 13:05:54;;;;;;;4.97;2.50;;;;;;;;;;10384813;28;20033;-50
2022/07/15 13:10:57;;;;;;;5.72;2.47;;;;;;;;;;10393608;28;20558;-49
2022/07/15 13:16:02;;;;;;;8.18;2.42;;;;;;;;;;10396965;28;20029;-50
2022/07/15 13:21:03;;;;;;;6.43;3.05;;;;;;;;;;10391777;28;20053;-51
2022/07/15 13:26:04;;;;;;;4.75;2.60;;;;;;;;;;10405647;28;20045;-51
2022/07/15 13:31:04;;;;;;;3.43;2.77;;;;;;;;;;10400725;28;20022;-49
2022/07/15 13:36:05;;;;;;;8.85;2.72;;;;;;;;;;10393623;28;20470;-48
2022/07/15 13:41:05;;;;;;;9.20;2.97;;;;;;;;;;10401037;28;20033;-47
2022/07/15 13:46:06;;;;;;;5.30;2.50;;;;;;;;;;10406665;28;20032;-51
2022/07/15 13:51:25;;;;;;;10.55;2.63;;;;;;;;;;10410636;28;20026;-49
2022/07/15 13:56:26;;;;;;;17.77;3.17;;;;;;;;;;10411852;28;20491;-50
2022/07/15 14:01:27;;;;;;;10.20;3.05;;;;;;;;;;10409195;28;20439;-49
2022/07/15 14:06:28;;;;;;;11.50;2.67;;;;;;;;;;10410744;28;20037;-54
2022/07/15 14:11:28;;;;;;;12.47;2.70;;;;;;;;;;10411935;28;20405;-51
2022/07/15 14:16:29;;;;;;;10.00;2.80;;;;;;;;;;10411584;28;21176;-51
2022/07/15 14:21:29;;;;;;;9.88;2.80;;;;;;;;;;10411478;28;20541;-50
2022/07/15 14:26:30;;;;;;;13.87;2.83;;;;;;;;;;10407367;28;20056;-50
2022/07/15 14:31:30;;;;;;;6.57;2.87;;;;;;;;;;10405862;28;20469;-48
2022/07/15 14:36:30;;;;;;;9.80;2.40;;;;;;;;;;10412780;28;20025;-49
2022/07/15 14:41:31;;;;;;;8.17;2.77;;;;;;;;;;10405099;28;20108;-49
2022/07/15 14:46:31;;;;;;;20.75;2.95;;;;;;;;;;10403987;28;20633;-51
2022/07/15 14:51:32;;;;;;;25.57;3.27;;;;;;;;;;10404755;28;20030;-49
2022/07/15 14:56:32;;;;;;;10.13;2.40;;;;;;;;;;10409433;28;21020;-51
2022/07/15 15:01:32;;;;;;;11.07;2.60;;;;;;;;;;10384559;28;20451;-51
2022/07/15 15:06:33;;;;;;;9.23;2.10;;;;;;;;;;10383159;28;20390;-48
2022/07/15 15:11:33;;;;;;;16.93;2.03;;;;;;;;;;10405237;28;20460;-51
2022/07/15 15:16:34;;;;;;;7.37;1.90;;;;;;;;;;10384960;28;20741;-47
2022/07/15 15:21:36;;;;;;;7.00;1.83;;;;;;;;;;10405456;28;20354;-58
2022/07/15 15:26:36;;;;;;;5.28;1.90;;;;;;;;;;10409639;28;20413;-57
2022/07/15 15:31:37;;;;;;;4.22;1.90;;;;;;;;;;10409208;28;20036;-58
2022/07/15 15:36:37;;;;;;;3.73;2.00;;;;;;;;;;10392254;28;20513;-59
2022/07/15 15:41:38;;;;;;;4.67;2.00;;;;;;;;;;10399202;28;20521;-57
2022/07/15 15:46:39;;;;;;;4.88;1.95;;;;;;;;;;10406064;28;20470;-58
2022/07/15 15:51:39;;;;;;;5.97;1.83;;;;;;;;;;10408321;28;20068;-58
2022/07/15 15:56:40;;;;;;;6.22;1.75;;;;;;;;;;10408609;28;20469;-59
2022/07/15 16:01:40;;;;;;;4.78;1.95;;;;;;;;;;10422657;28;20049;-58
2022/07/15 16:06:41;;;;;;;9.13;1.95;;;;;;;;;;10396387;28;20485;-56
2022/07/15 16:11:41;;;;;;;4.00;1.87;;;;;;;;;;10399833;28;20375;-58
2022/07/15 16:16:42;;;;;;;2.17;1.50;;;;;;;;;;10406114;28;20889;-57
2022/07/15 16:27:01;;;;;;;4.68;1.80;;;;;;;;;;10407810;28;20412;-55
2022/07/15 16:32:02;;;;;;;5.03;1.52;;;;;;;;;;10406417;28;20030;-58
2022/07/15 16:37:03;;;;;;;3.55;1.80;;;;;;;;;;10406953;28;20087;-59
2022/07/15 16:42:04;;;;;;;7.13;2.08;;;;;;;;;;10402466;28;20112;-60
2022/07/15 16:47:06;;;;;;;5.45;1.75;;;;;;;;;;10405626;28;20388;-55
2022/07/15 16:52:06;;;;;;;2.65;1.75;;;;;;;;;;10402043;28;20017;-56
2022/07/15 16:57:07;;;;;;;6.32;2.08;;;;;;;;;;10405933;28;20029;-54
2022/07/15 17:02:11;;;;;;;4.38;2.00;;;;;;;;;;10406745;28;20033;-57
2022/07/15 17:07:13;;;;;;;9.75;1.67;;;;;;;;;;10405239;28;20049;-59
2022/07/15 17:12:13;;;;;;;3.50;1.77;;;;;;;;;;10415000;28;20037;-57
2022/07/15 17:17:13;;;;;;;2.53;1.50;;;;;;;;;;10414742;28;20047;-60
2022/07/15 17:22:14;;;;;;;3.28;1.98;;;;;;;;;;10427734;28;20493;-57
2022/07/15 17:27:15;;;;;;;7.83;2.03;;;;;;;;;;10399161;28;20563;-59
2022/07/15 17:32:15;;;;;;;4.50;1.90;;;;;;;;;;10412486;28;20474;-61
2022/07/15 17:37:16;;;;;;;8.60;1.95;;;;;;;;;;10414148;28;20017;-60
2022/07/15 17:42:16;;;;;;;6.07;2.17;;;;;;;;;;10411939;28;20063;-63
2022/07/15 17:47:17;;;;;;;13.88;2.33;;;;;;;;;;10409184;28;20553;-61
2022/07/15 17:52:17;;;;;;;2.67;1.93;;;;;;;;;;10413274;28;20099;-58
2022/07/15 17:57:17;;;;;;;6.13;2.05;;;;;;;;;;10413536;28;20850;-63
2022/07/15 18:02:18;;;;;;;4.53;2.30;;;;;;;;;;10412584;28;20052;-61
2022/07/15 18:07:18;;;;;;;6.83;2.13;;;;;;;;;;10413515;28;20455;-61
2022/07/15 18:12:19;;;;;;;7.15;2.25;;;;;;;;;;10405801;28;20488;-51
2022/07/15 18:17:19;;;;;;;2.97;1.87;;;;;;;;;;10410753;28;20474;-55
2022/07/15 18:22:20;;;;;;;4.03;2.07;;;;;;;;;;10411160;28;20554;-50
2022/07/15 18:27:20;;;;;;;4.47;1.90;;;;;;;;;;10411949;28;20566;-54
2022/07/15 18:32:20;;;;;;;3.60;2.10;;;;;;;;;;10409634;28;20044;-54
2022/07/15 18:37:21;;;;;;;4.73;2.40;;;;;;;;;;10408960;28;20280;-57
2022/07/15 18:42:21;;;;;;;5.87;2.00;;;;;;;;;;10405228;28;20490;-48
2022/07/15 18:47:22;;;;;;;14.57;2.43;;;;;;;;;;10406719;28;20034;-58
2022/07/15 18:52:22;;;;;;;5.23;2.10;;;;;;;;;;10401191;28;20025;-58
2022/07/15 18:57:22;;;;;;;7.60;2.40;;;;;;;;;;10403470;28;21024;-52
2022/07/15 19:02:23;;;;;;;5.50;1.93;;;;;;;;;;10407012;28;20086;-53
2022/07/15 19:07:23;;;;;;;7.60;2.20;;;;;;;;;;10400516;28;20865;-51
2022/07/15 19:12:24;;;;;;;20.33;3.80;;;;;;;;;;10408385;28;21012;-50
2022/07/15 19:17:25;;;;;;;22.50;4.28;;;;;;;;;;10394674;28;20473;-63
2022/07/15 19:22:25;;;;;;;13.70;3.10;;;;;;;;;;10403307;28;20033;-62
2022/07/15 19:27:27;;;;;;;8.05;3.20;;;;;;;;;;10408918;28;20091;-58
2022/07/15 19:32:28;;;;;;;6.05;2.92;;;;;;;;;;10408710;28;20036;-55
2022/07/15 19:37:29;;;;;;;10.40;3.22;;;;;;;;;;10409721;28;20481;-57
2022/07/15 19:42:29;;;;;;;6.57;3.08;;;;;;;;;;10409668;28;20026;-54
2022/07/15 19:47:30;;;;;;;6.45;2.45;;;;;;;;;;10410024;28;20029;-56
2022/07/15 19:52:32;;;;;;;5.88;2.35;;;;;;;;;;10408807;28;20033;-58
2022/07/15 19:57:32;;;;;;;5.30;2.40;;;;;;;;;;10408636;28;20033;-55
2022/07/15 20:02:33;;;;;;;9.93;2.50;;;;;;;;;;10408163;28;20060;-57
2022/07/15 20:07:33;;;;;;;7.75;2.40;;;;;;;;;;10407719;28;20026;-59
2022/07/15 20:12:35;;;;;;;4.75;2.20;;;;;;;;;;10399700;28;20109;-60
2022/07/15 20:17:37;;;;;;;3.33;2.47;;;;;;;;;;10376518;28;20025;-59
2022/07/15 20:22:38;;;;;;;7.57;2.67;;;;;;;;;;10373500;28;20049;-62
2022/07/15 20:27:39;;;;;;;4.65;2.25;;;;;;;;;;10378529;28;20034;-60
2022/07/15 20:32:42;;;;;;;5.50;2.40;;;;;;;;;;10379733;28;20090;-64
2022/07/15 20:37:43;;;;;;;5.30;2.38;;;;;;;;;;10374560;28;20175;-62
2022/07/15 20:42:45;;;;;;;7.05;2.22;;;;;;;;;;10376835;28;20501;-63
2022/07/15 20:47:45;;;;;;;3.90;2.28;;;;;;;;;;10372914;28;20029;-63
2022/07/15 20:52:46;;;;;;;7.68;2.28;;;;;;;;;;10380879;28;20378;-58
2022/07/15 20:57:47;;;;;;;2.88;2.38;;;;;;;;;;10386020;28;20423;-63
2022/07/15 21:02:47;;;;;;;11.52;2.80;;;;;;;;;;10406359;28;20384;-64
2022/07/15 21:07:48;;;;;;;9.20;2.75;;;;;;;;;;10406754;28;20040;-64
2022/07/15 21:12:49;;;;;;;7.82;2.90;;;;;;;;;;10406926;28;20025;-60
2022/07/15 21:17:50;;;;;;;11.43;2.53;;;;;;;;;;10378727;28;20493;-63
2022/07/15 21:22:50;;;;;;;11.00;2.72;;;;;;;;;;10377904;28;20417;-62
2022/07/15 21:27:54;;;;;;;5.65;2.45;;;;;;;;;;10394797;28;20055;-65
2022/07/15 21:32:56;;;;;;;4.55;2.15;;;;;;;;;;10401676;28;20454;-64
2022/07/15 21:37:56;;;;;;;4.90;2.35;;;;;;;;;;10406212;28;20045;-63
2022/07/15 21:42:57;;;;;;;3.20;2.17;;;;;;;;;;10400782;28;20413;-62
2022/07/15 21:47:58;;;;;;;3.28;2.15;;;;;;;;;;10404880;28;20021;-64
2022/07/15 21:52:59;;;;;;;10.40;2.60;;;;;;;;;;10408135;28;20068;-62
2022/07/15 21:58:00;;;;;;;2.90;2.20;;;;;;;;;;10413440;28;20086;-63
2022/07/15 22:03:00;;;;;;;7.40;2.20;;;;;;;;;;10413006;28;20035;-63
2022/07/15 22:08:01;;;;;;;5.72;2.50;;;;;;;;;;10406646;28;20021;-63
2022/07/15 22:13:03;;;;;;;8.43;2.67;;;;;;;;;;10406992;28;20030;-61
2022/07/15 22:18:03;;;;;;;5.88;2.63;;;;;;;;;;10412544;28;20052;-58
2022/07/15 22:23:04;;;;;;;7.53;2.58;;;;;;;;;;10408002;28;20035;-59
2022/07/15 22:28:05;;;;;;;7.28;2.35;;;;;;;;;;10406362;28;20382;-56
2022/07/15 22:33:05;;;;;;;17.10;2.45;;;;;;;;;;10412257;28;20401;-50
2022/07/15 22:38:06;;;;;;;9.68;2.90;;;;;;;;;;10412167;28;20021;-57
2022/07/15 22:43:07;;;;;;;6.97;2.58;;;;;;;;;;10412228;28;20119;-52
2022/07/15 22:48:08;;;;;;;5.13;2.20;;;;;;;;;;10404943;28;20040;-56
2022/07/15 22:53:09;;;;;;;4.53;2.35;;;;;;;;;;10411241;28;20393;-56
2022/07/15 22:58:10;;;;;;;9.60;2.47;;;;;;;;;;10404075;28;20036;-57
2022/07/15 23:03:10;;;;;;;13.23;3.60;;;;;;;;;;10411457;28;20048;-55
2022/07/15 23:08:11;;;;;;;9.48;2.75;;;;;;;;;;10408880;28;20037;-56
2022/07/15 23:13:11;;;;;;;9.30;2.90;;;;;;;;;;10410711;28;20103;-54
2022/07/15 23:18:12;;;;;;;13.38;2.97;;;;;;;;;;10397271;28;20022;-56
2022/07/15 23:23:12;;;;;;;6.22;2.47;;;;;;;;;;10402931;28;20034;-57
2022/07/15 23:28:13;;;;;;;13.13;2.33;;;;;;;;;;10400722;28;20492;-55
2022/07/15 23:33:14;;;;;;;4.57;2.60;;;;;;;;;;10410087;28;20401;-58
2022/07/15 23:38:14;;;;;;;8.40;2.50;;;;;;;;;;10409609;28;20362;-56
2022/07/15 23:43:15;;;;;;;5.53;2.28;;;;;;;;;;10410027;28;20037;-58
2022/07/15 23:48:15;;;;;;;4.07;2.30;;;;;;;;;;10408639;28;20041;-58
2022/07/15 23:53:16;;;;;;;3.70;1.98;;;;;;;;;;10404059;28;20043;-55
2022/07/15 23:58:17;;;;;;;5.30;2.20;;;;;;;;;;10408836;28;20503;-57
